createdAt,value
2023-05-24T00:01:25.175Z,6.45
2023-05-24T00:03:51.916Z,6.72
2023-05-24T00:06:19.921Z,6.38
2023-05-24T00:08:46.649Z,6.35
2023-05-24T00:11:13.049Z,6.22
2023-05-24T00:13:39.403Z,6.28
2023-05-24T00:16:05.919Z,6.38
2023-05-24T00:18:32.329Z,5.90
2023-05-24T00:20:58.768Z,6.22
2023-05-24T00:23:26.210Z,6.38
2023-05-24T00:25:52.778Z,6.40
2023-05-24T00:28:19.105Z,6.45
2023-05-24T00:30:45.621Z,5.85
2023-05-24T00:33:11.990Z,6.30
2023-05-24T00:35:38.405Z,6.68
2023-05-24T00:38:04.726Z,6.68
2023-05-24T00:40:31.948Z,6.88
2023-05-24T00:42:58.319Z,6.70
2023-05-24T00:45:24.692Z,6.78
2023-05-24T00:47:51.103Z,7.05
2023-05-24T00:50:18.704Z,6.82
2023-05-24T00:52:47.370Z,6.93
2023-05-24T00:55:13.944Z,7.45
2023-05-24T00:57:41.172Z,6.57
2023-05-24T01:00:10.500Z,6.53
2023-05-24T01:02:37.890Z,7.03
2023-05-24T01:05:05.463Z,6.90
2023-05-24T01:07:51.752Z,6.30
2023-05-24T01:10:37.610Z,7.28
2023-05-24T01:13:13.530Z,7.97
2023-05-24T01:15:48.766Z,7.47
2023-05-24T01:18:21.304Z,8.02
2023-05-24T01:20:51.602Z,7.82
2023-05-24T01:23:31.148Z,8.40
2023-05-24T01:26:08.111Z,8.52
2023-05-24T01:28:35.694Z,8.63
2023-05-24T01:31:03.674Z,7.95
2023-05-24T01:33:30.159Z,8.18
2023-05-24T01:35:56.575Z,8.20
2023-05-24T01:38:22.904Z,7.97
2023-05-24T01:40:57.359Z,8.68
2023-05-24T01:43:31.171Z,8.82
2023-05-24T01:46:06.293Z,8.63
2023-05-24T01:48:37.979Z,8.23
2023-05-24T01:51:06.944Z,8.55
2023-05-24T01:53:35.153Z,7.75
2023-05-24T01:56:04.570Z,7.60
2023-05-24T01:58:33.138Z,8.48
2023-05-24T02:01:01.309Z,7.78
2023-05-24T02:03:27.814Z,8.27
2023-05-24T02:05:54.194Z,8.63
2023-05-24T02:08:21.405Z,8.05
2023-05-24T02:10:47.754Z,7.85
2023-05-24T02:13:15.550Z,9.68
2023-05-24T02:15:42.508Z,8.73
2023-05-24T02:18:10.595Z,8.25
2023-05-24T02:20:37.286Z,9.05
2023-05-24T02:23:04.139Z,8.85
2023-05-24T02:25:31.313Z,9.98
2023-05-24T02:27:57.809Z,10.52
2023-05-24T02:30:24.145Z,10.20
2023-05-24T02:32:50.589Z,9.27
2023-05-24T02:35:17.725Z,9.05
2023-05-24T02:37:44.169Z,9.52
2023-05-24T02:40:11.618Z,9.43
2023-05-24T02:42:38.058Z,8.93
2023-05-24T02:45:05.451Z,8.48
2023-05-24T02:47:31.779Z,9.02
2023-05-24T02:49:58.178Z,9.48
2023-05-24T02:52:26.014Z,8.85
2023-05-24T02:54:52.386Z,9.77
2023-05-24T02:57:18.755Z,9.75
2023-05-24T02:59:45.216Z,11.00
2023-05-24T03:02:12.989Z,10.50
2023-05-24T03:04:39.394Z,10.27
2023-05-24T03:07:06.079Z,9.93
2023-05-24T03:09:33.090Z,10.48
2023-05-24T03:11:59.429Z,9.18
2023-05-24T03:14:25.801Z,10.13
2023-05-24T03:16:52.229Z,9.57
2023-05-24T03:19:18.584Z,10.65
2023-05-24T03:21:44.980Z,10.65
2023-05-24T03:24:12.390Z,10.45
2023-05-24T03:26:39.550Z,10.38
2023-05-24T03:29:06.420Z,10.20
2023-05-24T03:31:32.817Z,9.73
2023-05-24T03:33:59.260Z,9.82
2023-05-24T03:36:27.238Z,10.40
2023-05-24T03:38:54.240Z,9.63
2023-05-24T03:41:20.597Z,10.32
2023-05-24T03:43:47.627Z,10.18
2023-05-24T03:46:13.960Z,12.10
2023-05-24T03:48:40.355Z,11.50
2023-05-24T03:51:08.476Z,11.10
2023-05-24T03:53:35.053Z,10.55
2023-05-24T03:56:01.422Z,11.55
2023-05-24T03:58:29.023Z,12.43
2023-05-24T04:00:56.070Z,11.90
2023-05-24T04:03:22.510Z,11.80
2023-05-24T04:05:49.081Z,10.90
2023-05-24T04:08:15.708Z,10.23
2023-05-24T04:10:42.342Z,9.93
2023-05-24T04:13:08.831Z,9.82
2023-05-24T04:15:35.353Z,9.93
2023-05-24T04:18:02.526Z,10.38
2023-05-24T04:20:29.237Z,10.20
2023-05-24T04:22:55.736Z,9.23
2023-05-24T04:25:22.392Z,10.25
2023-05-24T04:27:49.580Z,8.70
2023-05-24T04:30:16.438Z,8.75
2023-05-24T04:32:43.961Z,8.45
2023-05-24T04:35:11.287Z,8.45
2023-05-24T04:37:37.609Z,8.25
2023-05-24T04:40:05.111Z,9.10
2023-05-24T04:42:31.418Z,9.05
2023-05-24T04:44:57.980Z,9.45
2023-05-24T04:47:24.445Z,9.30
2023-05-24T04:49:51.286Z,8.25
2023-05-24T04:52:18.388Z,8.40
2023-05-24T04:54:44.827Z,8.93
2023-05-24T04:57:11.346Z,9.82
2023-05-24T04:59:37.668Z,10.07
2023-05-24T05:02:04.727Z,8.82
2023-05-24T05:04:31.118Z,9.35
2023-05-24T05:06:57.540Z,9.68
2023-05-24T05:09:24.517Z,10.18
2023-05-24T05:11:50.983Z,10.35
2023-05-24T05:14:17.475Z,10.35
2023-05-24T05:16:44.986Z,10.25
2023-05-24T05:19:12.762Z,10.23
2023-05-24T05:21:39.239Z,10.15
2023-05-24T05:24:05.728Z,10.57
2023-05-24T05:26:32.769Z,9.43
2023-05-24T05:28:59.183Z,10.32
2023-05-24T05:31:25.636Z,10.15
2023-05-24T05:33:52.330Z,9.35
2023-05-24T05:36:18.940Z,8.70
2023-05-24T05:38:45.801Z,8.80
2023-05-24T05:41:12.205Z,8.70
2023-05-24T05:43:39.285Z,8.10
2023-05-24T05:46:06.119Z,8.52
2023-05-24T05:48:32.542Z,7.70
2023-05-24T05:50:58.915Z,8.30
2023-05-24T05:53:25.248Z,7.95
2023-05-24T05:55:51.674Z,7.97
2023-05-24T05:58:18.007Z,7.72
2023-05-24T06:00:45.063Z,7.30
2023-05-24T06:03:11.533Z,7.80
2023-05-24T06:05:38.247Z,7.85
2023-05-24T06:08:04.625Z,7.97
2023-05-24T06:10:30.980Z,7.90
2023-05-24T06:12:57.296Z,8.18
2023-05-24T06:15:23.727Z,7.43
2023-05-24T06:17:52.014Z,8.50
2023-05-24T06:20:18.716Z,8.52
2023-05-24T06:22:45.564Z,8.07
2023-05-24T06:25:14.788Z,9.27
2023-05-24T06:27:41.214Z,8.57
2023-05-24T06:30:08.727Z,8.80
2023-05-24T06:32:35.447Z,9.00
2023-05-24T06:35:03.336Z,9.23
2023-05-24T06:37:33.462Z,9.25
2023-05-24T06:39:59.793Z,8.27
2023-05-24T06:42:26.249Z,8.77
2023-05-24T06:44:52.632Z,9.52
2023-05-24T06:47:19.103Z,9.32
2023-05-24T06:49:47.298Z,9.75
2023-05-24T06:52:14.326Z,9.60
2023-05-24T06:54:40.847Z,10.75
2023-05-24T06:57:08.097Z,11.02
2023-05-24T06:59:34.438Z,10.98
2023-05-24T07:02:03.428Z,10.85
2023-05-24T07:04:30.478Z,10.95
2023-05-24T07:06:57.174Z,10.60
2023-05-24T07:09:24.210Z,10.60
2023-05-24T07:11:50.647Z,10.38
2023-05-24T07:14:17.026Z,10.77
2023-05-24T07:16:43.403Z,11.57
2023-05-24T07:19:09.815Z,10.38
2023-05-24T07:21:36.771Z,10.27
2023-05-24T07:24:03.897Z,11.40
2023-05-24T07:26:30.949Z,10.82
2023-05-24T07:28:57.307Z,10.18
2023-05-24T07:31:23.702Z,10.55
2023-05-24T07:33:50.126Z,10.98
2023-05-24T07:36:16.558Z,10.65
2023-05-24T07:38:42.906Z,9.60
2023-05-24T07:41:09.334Z,10.15
2023-05-24T07:43:36.889Z,9.98
2023-05-24T07:46:03.529Z,9.48
2023-05-24T07:48:29.883Z,9.85
2023-05-24T07:50:56.215Z,10.07
2023-05-24T07:53:22.708Z,10.32
2023-05-24T07:55:50.098Z,9.10
2023-05-24T07:58:16.515Z,8.63
2023-05-24T08:00:43.738Z,10.68
2023-05-24T08:03:12.796Z,9.65
2023-05-24T08:05:39.451Z,9.13
2023-05-24T08:08:05.842Z,9.27
2023-05-24T08:10:32.183Z,8.65
2023-05-24T08:12:58.563Z,9.40
2023-05-24T08:15:24.933Z,9.13
2023-05-24T08:17:51.939Z,8.45
2023-05-24T08:20:18.477Z,8.35
2023-05-24T08:22:44.909Z,8.73
2023-05-24T08:25:11.499Z,8.38
2023-05-24T08:27:37.982Z,7.45
2023-05-24T08:30:05.449Z,8.15
2023-05-24T08:32:31.929Z,8.27
2023-05-24T08:35:11.086Z,8.15
2023-05-24T08:37:45.391Z,8.60
2023-05-24T08:40:12.344Z,9.20
2023-05-24T08:42:38.909Z,8.90
2023-05-24T08:45:10.516Z,9.13
2023-05-24T08:47:38.014Z,9.25
2023-05-24T08:50:07.566Z,9.00
2023-05-24T08:52:35.324Z,10.48
2023-05-24T08:55:02.252Z,11.45
2023-05-24T08:57:30.113Z,12.73
2023-05-24T08:59:56.538Z,13.25
2023-05-24T09:02:23.585Z,12.45
2023-05-24T09:04:52.684Z,12.98
2023-05-24T09:07:22.776Z,13.45
2023-05-24T09:09:56.738Z,12.98
2023-05-24T09:12:36.698Z,13.57
2023-05-24T09:15:06.117Z,12.73
2023-05-24T09:17:34.039Z,11.32
2023-05-24T09:20:00.824Z,11.70
2023-05-24T09:22:29.881Z,12.10
2023-05-24T09:24:59.029Z,11.40
2023-05-24T09:27:25.742Z,11.73
2023-05-24T09:29:52.680Z,11.70
2023-05-24T09:32:23.332Z,10.85
2023-05-24T09:34:52.605Z,11.10
2023-05-24T09:37:24.457Z,10.13
2023-05-24T09:39:54.720Z,8.30
2023-05-24T09:42:23.766Z,9.68
2023-05-24T09:45:00.009Z,9.73
2023-05-24T09:47:28.948Z,9.55
2023-05-24T09:49:55.297Z,11.02
2023-05-24T09:52:22.116Z,10.20
2023-05-24T09:54:49.281Z,10.48
2023-05-24T09:57:16.483Z,11.07
2023-05-24T09:59:43.648Z,10.98
2023-05-24T10:02:11.435Z,12.02
2023-05-24T10:04:38.061Z,11.98
2023-05-24T10:07:05.635Z,11.63
2023-05-24T10:09:33.434Z,11.57
2023-05-24T10:12:03.695Z,10.73
2023-05-24T10:14:33.358Z,11.77
2023-05-24T10:16:59.854Z,13.35
2023-05-24T10:19:26.525Z,12.98
2023-05-24T10:21:53.437Z,12.18
2023-05-24T10:24:25.616Z,13.27
2023-05-24T10:26:53.863Z,13.23
2023-05-24T10:29:33.321Z,13.80
2023-05-24T10:32:00.880Z,13.40
2023-05-24T10:34:30.032Z,13.00
2023-05-24T10:36:58.167Z,13.80
2023-05-24T10:39:26.016Z,15.00
2023-05-24T10:41:56.275Z,15.02
2023-05-24T10:44:32.712Z,15.27
2023-05-24T10:47:07.409Z,15.13
2023-05-24T10:49:33.834Z,15.80
2023-05-24T10:52:07.832Z,14.90
2023-05-24T10:54:35.010Z,14.43
2023-05-24T10:57:03.716Z,14.27
2023-05-24T10:59:44.673Z,13.88
2023-05-24T11:02:14.163Z,12.68
2023-05-24T11:04:42.885Z,12.88
2023-05-24T11:07:10.731Z,12.48
2023-05-24T11:09:45.141Z,12.73
2023-05-24T11:12:15.323Z,12.73
2023-05-24T11:14:47.888Z,11.70
2023-05-24T11:17:15.643Z,12.07
2023-05-24T11:19:47.294Z,12.75
2023-05-24T11:22:14.482Z,13.27
2023-05-24T11:24:41.453Z,14.25
2023-05-24T11:27:10.530Z,13.30
2023-05-24T11:29:40.749Z,13.07
2023-05-24T11:32:07.415Z,13.68
2023-05-24T11:34:34.986Z,12.80
2023-05-24T11:37:04.751Z,13.80
2023-05-24T11:39:31.803Z,13.68
2023-05-24T11:41:58.327Z,13.15
2023-05-24T11:44:25.293Z,13.25
2023-05-24T11:46:57.350Z,12.20
2023-05-24T11:49:23.659Z,12.02
2023-05-24T11:51:53.086Z,11.43
2023-05-24T11:54:20.585Z,12.05
2023-05-24T11:56:47.381Z,12.02
2023-05-24T11:59:15.669Z,12.38
2023-05-24T12:01:42.485Z,10.55
2023-05-24T12:04:09.353Z,10.93
2023-05-24T12:06:37.682Z,10.77
2023-05-24T12:09:08.419Z,11.02
2023-05-24T12:11:37.697Z,11.23
2023-05-24T12:14:04.791Z,9.90
2023-05-24T12:16:32.504Z,8.98
2023-05-24T12:19:05.295Z,9.60
2023-05-24T12:21:35.824Z,10.38
2023-05-24T12:24:10.148Z,9.55
2023-05-24T12:26:37.394Z,10.32
2023-05-24T12:29:04.175Z,9.05
2023-05-24T12:31:31.075Z,9.30
2023-05-24T12:33:57.516Z,9.57
2023-05-24T12:36:23.875Z,8.82
2023-05-24T12:38:50.279Z,9.13
2023-05-24T12:41:19.378Z,9.23
2023-05-24T12:43:45.698Z,9.23
2023-05-24T12:46:12.499Z,8.63
2023-05-24T12:48:38.849Z,8.30
2023-05-24T12:51:05.383Z,8.85
2023-05-24T12:53:31.746Z,8.88
2023-05-24T12:55:59.797Z,9.05
2023-05-24T12:58:26.838Z,9.30
2023-05-24T13:00:53.635Z,8.75
2023-05-24T13:03:20.099Z,8.35
2023-05-24T13:05:46.579Z,8.50
2023-05-24T13:08:13.856Z,7.45
2023-05-24T13:10:40.497Z,7.45
2023-05-24T13:13:07.120Z,7.90
2023-05-24T13:15:34.207Z,6.55
2023-05-24T13:18:00.641Z,7.45
2023-05-24T13:20:27.123Z,7.88
2023-05-24T13:22:53.520Z,7.50
2023-05-24T13:25:21.817Z,7.72
2023-05-24T13:27:48.332Z,8.30
2023-05-24T13:30:16.438Z,8.10
2023-05-24T13:32:43.519Z,7.80
2023-05-24T13:35:09.885Z,8.57
2023-05-24T13:37:36.274Z,6.18
2023-05-24T13:40:03.479Z,8.00
2023-05-24T13:42:30.151Z,7.30
2023-05-24T13:44:58.407Z,7.97
2023-05-24T13:47:38.530Z,7.72
2023-05-24T13:50:07.788Z,7.70
2023-05-24T13:52:34.272Z,7.28
2023-05-24T13:55:04.070Z,8.25
2023-05-24T13:57:46.920Z,6.57
2023-05-24T14:00:17.421Z,7.30
2023-05-24T14:02:43.857Z,8.05
2023-05-24T14:05:25.870Z,7.93
2023-05-24T14:07:54.308Z,7.78
2023-05-24T14:10:21.736Z,8.75
2023-05-24T14:12:59.676Z,7.70
2023-05-24T14:15:30.368Z,8.35
2023-05-24T14:17:57.341Z,9.02
2023-05-24T14:20:24.438Z,7.45
2023-05-24T14:22:50.924Z,8.43
2023-05-24T14:25:17.315Z,8.30
2023-05-24T14:27:44.854Z,8.00
2023-05-24T14:30:12.092Z,7.38
2023-05-24T14:32:38.436Z,8.10
2023-05-24T14:35:05.562Z,8.23
2023-05-24T14:37:32.575Z,7.50
2023-05-24T14:39:58.949Z,8.35
2023-05-24T14:42:25.356Z,6.85
2023-05-24T14:44:51.728Z,8.05
2023-05-24T14:47:18.089Z,8.35
2023-05-24T14:49:44.437Z,7.50
2023-05-24T14:52:10.774Z,7.70
2023-05-24T14:54:37.806Z,7.35
2023-05-24T14:57:06.595Z,8.05
2023-05-24T14:59:32.971Z,7.07
2023-05-24T15:01:59.350Z,7.43
2023-05-24T15:04:26.362Z,7.10
2023-05-24T15:06:52.715Z,7.72
2023-05-24T15:09:19.154Z,7.43
2023-05-24T15:11:46.164Z,8.70
2023-05-24T15:14:12.584Z,8.50
2023-05-24T15:16:38.974Z,7.95
2023-05-24T15:19:05.416Z,7.13
2023-05-24T15:21:31.785Z,7.35
2023-05-24T15:24:00.176Z,7.63
2023-05-24T15:26:26.874Z,6.82
2023-05-24T15:28:54.238Z,7.28
2023-05-24T15:31:20.616Z,7.07
2023-05-24T15:33:47.012Z,7.60
2023-05-24T15:36:16.081Z,6.80
2023-05-24T15:38:42.748Z,6.68
2023-05-24T15:41:09.131Z,6.43
2023-05-24T15:43:35.484Z,6.65
2023-05-24T15:46:02.523Z,6.28
2023-05-24T15:48:28.891Z,6.80
2023-05-24T15:51:42.931Z,6.57
2023-05-24T15:53:41.604Z,7.10
2023-05-24T15:56:08.909Z,6.88
2023-05-24T15:58:35.438Z,7.72
2023-05-24T16:01:02.473Z,8.07
2023-05-24T16:03:28.955Z,7.50
2023-05-24T16:05:55.395Z,7.38
2023-05-24T16:08:26.840Z,6.80
2023-05-24T16:10:53.329Z,7.63
2023-05-24T16:13:20.766Z,8.00
2023-05-24T16:15:50.684Z,6.97
2023-05-24T16:18:18.298Z,6.70
2023-05-24T16:20:45.798Z,7.43
2023-05-24T16:23:12.567Z,6.82
2023-05-24T16:25:38.917Z,6.63
2023-05-24T16:28:05.282Z,6.57
2023-05-24T16:30:31.750Z,6.32
2023-05-24T16:32:58.186Z,6.45
2023-05-24T16:35:25.291Z,5.80
2023-05-24T16:37:51.644Z,6.75
2023-05-24T16:40:18.054Z,7.00
2023-05-24T16:42:44.402Z,7.07
2023-05-24T16:45:11.155Z,7.15
2023-05-24T16:47:42.026Z,6.43
2023-05-24T16:50:14.039Z,7.95
2023-05-24T16:52:41.216Z,6.50
2023-05-24T16:55:08.529Z,7.22
2023-05-24T16:57:35.284Z,6.40
2023-05-24T17:00:03.235Z,7.38
2023-05-24T17:02:29.679Z,6.93
2023-05-24T17:04:56.094Z,7.07
2023-05-24T17:07:22.533Z,7.53
2023-05-24T17:09:50.695Z,6.78
2023-05-24T17:12:17.441Z,7.18
2023-05-24T17:14:43.901Z,7.80
2023-05-24T17:17:11.795Z,7.60
2023-05-24T17:19:38.394Z,7.85
2023-05-24T17:22:05.812Z,6.43
2023-05-24T17:24:32.197Z,7.60
2023-05-24T17:27:01.220Z,7.90
2023-05-24T17:29:29.223Z,7.95
2023-05-24T17:31:55.610Z,7.15
2023-05-24T17:34:21.969Z,7.90
2023-05-24T17:36:48.471Z,7.82
2023-05-24T17:39:16.613Z,7.70
2023-05-24T17:41:43.684Z,7.95
2023-05-24T17:44:10.765Z,7.97
2023-05-24T17:46:39.726Z,7.78
2023-05-24T17:49:07.754Z,8.27
2023-05-24T17:51:34.594Z,8.50
2023-05-24T17:54:00.893Z,7.85
2023-05-24T17:56:28.349Z,7.57
2023-05-24T17:58:54.897Z,8.90
2023-05-24T18:01:22.322Z,8.30
2023-05-24T18:03:48.716Z,7.97
2023-05-24T18:06:15.195Z,8.57
2023-05-24T18:08:42.574Z,8.57
2023-05-24T18:11:09.584Z,9.15
2023-05-24T18:13:37.157Z,8.02
2023-05-24T18:16:03.561Z,8.65
2023-05-24T18:18:30.603Z,8.45
2023-05-24T18:20:56.952Z,9.07
2023-05-24T18:23:23.338Z,8.88
2023-05-24T18:25:49.705Z,8.77
2023-05-24T18:28:16.060Z,8.65
2023-05-24T18:30:42.584Z,8.00
2023-05-24T18:33:09.153Z,8.82
2023-05-24T18:35:36.262Z,8.32
2023-05-24T18:38:06.476Z,8.02
2023-05-24T18:40:32.841Z,9.10
2023-05-24T18:42:59.237Z,7.88
2023-05-24T18:45:25.630Z,8.82
2023-05-24T18:47:53.399Z,8.35
2023-05-24T18:50:23.119Z,9.13
2023-05-24T18:52:50.680Z,8.70
2023-05-24T18:55:17.053Z,8.52
2023-05-24T18:57:43.359Z,8.25
2023-05-24T19:00:11.158Z,8.07
2023-05-24T19:02:39.031Z,8.93
2023-05-24T19:05:06.367Z,8.30
2023-05-24T19:07:33.315Z,9.35
2023-05-24T19:10:00.424Z,8.98
2023-05-24T19:12:26.820Z,9.60
2023-05-24T19:14:53.199Z,10.05
2023-05-24T19:17:19.701Z,8.15
2023-05-24T19:19:47.299Z,8.05
2023-05-24T19:22:13.661Z,7.10
2023-05-24T19:24:40.067Z,6.28
2023-05-24T19:27:07.176Z,6.78
2023-05-24T19:29:34.057Z,5.88
2023-05-24T19:32:00.516Z,6.60
2023-05-24T19:34:27.881Z,6.70
2023-05-24T19:36:54.287Z,7.07
2023-05-24T19:39:21.095Z,6.25
2023-05-24T19:41:47.571Z,6.22
2023-05-24T19:44:14.598Z,6.70
2023-05-24T19:46:40.958Z,6.40
2023-05-24T19:49:08.704Z,6.60
2023-05-24T19:51:36.738Z,7.18
2023-05-24T19:54:03.213Z,7.45
2023-05-24T19:56:29.734Z,7.78
2023-05-24T19:58:56.089Z,7.88
2023-05-24T20:01:23.100Z,7.40
2023-05-24T20:03:49.596Z,7.72
2023-05-24T20:06:16.748Z,7.93
2023-05-24T20:08:44.084Z,7.82
2023-05-24T20:11:11.305Z,8.48
2023-05-24T20:13:37.823Z,8.23
2023-05-24T20:16:04.362Z,8.50
2023-05-24T20:18:34.315Z,8.35
2023-05-24T20:21:00.851Z,8.32
2023-05-24T20:23:27.269Z,8.40
2023-05-24T20:25:54.674Z,8.93
2023-05-24T20:28:30.080Z,8.15
2023-05-24T20:30:57.457Z,8.68
2023-05-24T20:33:23.827Z,8.77
2023-05-24T20:35:52.265Z,8.57
2023-05-24T20:38:18.715Z,8.68
2023-05-24T20:40:47.974Z,8.20
2023-05-24T20:43:14.412Z,9.00
2023-05-24T20:45:40.969Z,8.00
2023-05-24T20:48:07.477Z,9.23
2023-05-24T20:50:33.956Z,8.48
2023-05-24T20:53:01.017Z,8.45
2023-05-24T20:55:27.409Z,8.80
2023-05-24T20:57:53.884Z,8.77
2023-05-24T21:00:20.481Z,8.60
2023-05-24T21:02:46.976Z,8.27
2023-05-24T21:05:13.591Z,9.18
2023-05-24T21:07:40.086Z,8.18
2023-05-24T21:10:08.682Z,8.15
2023-05-24T21:12:35.064Z,8.32
2023-05-24T21:15:01.630Z,9.07
2023-05-24T21:17:28.042Z,7.93
2023-05-24T21:19:54.481Z,7.85
2023-05-24T21:22:20.901Z,7.15
2023-05-24T21:24:47.281Z,7.82
2023-05-24T21:27:14.344Z,7.78
2023-05-24T21:29:41.105Z,6.78
2023-05-24T21:32:07.509Z,6.50
2023-05-24T21:34:35.026Z,6.95
2023-05-24T21:37:01.396Z,8.30
2023-05-24T21:39:27.732Z,6.85
2023-05-24T21:41:54.082Z,6.68
2023-05-24T21:44:21.112Z,6.47
2023-05-24T21:46:47.574Z,6.20
2023-05-24T21:49:14.461Z,7.85
2023-05-24T21:51:40.832Z,5.88
2023-05-24T21:54:07.263Z,5.63
2023-05-24T21:56:33.663Z,4.88
2023-05-24T21:59:00.110Z,6.15
2023-05-24T22:01:28.226Z,5.75
2023-05-24T22:03:54.888Z,5.95
2023-05-24T22:06:22.963Z,5.70
2023-05-24T22:08:50.296Z,6.57
2023-05-24T22:11:17.118Z,5.97
2023-05-24T22:13:43.478Z,5.63
2023-05-24T22:16:10.035Z,6.53
2023-05-24T22:18:37.116Z,6.15
2023-05-24T22:21:03.711Z,6.57
2023-05-24T22:23:30.382Z,7.05
2023-05-24T22:25:56.737Z,6.05
2023-05-24T22:28:24.126Z,6.63
2023-05-24T22:30:51.540Z,7.57
2023-05-24T22:33:17.939Z,6.57
2023-05-24T22:35:45.164Z,6.63
2023-05-24T22:38:12.206Z,6.20
2023-05-24T22:40:41.310Z,7.20
2023-05-24T22:43:07.683Z,6.57
2023-05-24T22:45:34.075Z,7.38
2023-05-24T22:48:00.481Z,8.00
2023-05-24T22:50:26.909Z,7.03
2023-05-24T23:00:15.666Z,6.93
2023-05-24T23:02:42.058Z,6.45
2023-05-24T23:05:10.414Z,6.72
2023-05-24T23:07:37.322Z,6.90
2023-05-24T23:10:04.095Z,6.65
2023-05-24T23:12:30.448Z,7.40
2023-05-24T23:14:57.643Z,7.30
2023-05-24T23:17:24.023Z,7.78
2023-05-24T23:19:50.574Z,6.70
2023-05-24T23:22:17.872Z,5.97
2023-05-24T23:24:46.783Z,6.35
2023-05-24T23:27:13.227Z,7.15
2023-05-24T23:29:40.054Z,6.80
2023-05-24T23:32:08.179Z,6.47
2023-05-24T23:34:34.827Z,6.38
2023-05-24T23:37:01.322Z,5.95
2023-05-24T23:39:27.856Z,6.28
2023-05-24T23:41:54.229Z,6.10
2023-05-24T23:44:22.879Z,6.32
2023-05-24T23:46:49.366Z,5.50
2023-05-24T23:49:16.397Z,6.05
2023-05-24T23:51:42.728Z,5.60
2023-05-24T23:54:09.152Z,5.65
2023-05-24T23:56:36.145Z,5.88
2023-05-24T23:59:02.464Z,5.45
